createdAt,value
2022-08-10T00:03:07.709Z,24.22
2022-08-10T00:08:12.660Z,24.10
2022-08-10T00:13:28.099Z,24.08
2022-08-10T00:18:35.574Z,24.09
2022-08-10T00:23:42.178Z,23.96
2022-08-10T00:28:45.668Z,23.88
2022-08-10T00:33:49.147Z,23.70
2022-08-10T00:38:54.040Z,23.69
2022-08-10T00:43:57.492Z,23.56
2022-08-10T00:49:01.055Z,23.50
2022-08-10T00:54:06.590Z,23.32
2022-08-10T00:59:13.845Z,23.27
2022-08-10T01:04:39.568Z,23.19
2022-08-10T01:09:55.689Z,23.12
2022-08-10T01:15:05.895Z,23.07
2022-08-10T01:20:30.218Z,22.89
2022-08-10T01:26:10.494Z,22.73
2022-08-10T01:31:15.902Z,22.69
2022-08-10T01:36:20.812Z,22.68
2022-08-10T01:41:46.639Z,22.46
2022-08-10T01:46:56.770Z,22.28
2022-08-10T01:52:01.732Z,22.28
2022-08-10T01:57:05.996Z,22.12
2022-08-10T02:02:13.302Z,21.96
2022-08-10T02:07:19.933Z,21.77
2022-08-10T02:12:25.623Z,21.91
2022-08-10T02:17:58.375Z,21.95
2022-08-10T02:23:02.330Z,21.81
2022-08-10T02:28:07.500Z,21.67
2022-08-10T02:33:12.723Z,21.66
2022-08-10T02:38:58.251Z,21.55
2022-08-10T02:45:21.828Z,21.41
2022-08-10T02:49:21.439Z,21.44
2022-08-10T02:54:26.293Z,21.37
2022-08-10T02:59:39.597Z,21.27
2022-08-10T03:04:56.188Z,21.14
2022-08-10T03:10:02.910Z,21.15
2022-08-10T03:15:15.327Z,21.14
2022-08-10T03:20:38.401Z,21.01
2022-08-10T03:25:53.180Z,20.99
2022-08-10T03:30:58.543Z,20.95
2022-08-10T03:36:44.088Z,20.93
2022-08-10T03:41:35.606Z,20.91
2022-08-10T03:46:42.538Z,20.81
2022-08-10T03:51:49.166Z,20.76
2022-08-10T03:56:52.843Z,20.71
2022-08-10T04:02:46.397Z,20.74
2022-08-10T04:07:21.873Z,20.63
2022-08-10T04:12:25.570Z,20.80
2022-08-10T04:18:03.039Z,20.88
2022-08-10T04:22:54.841Z,21.00
2022-08-10T04:27:58.773Z,21.02
2022-08-10T04:33:03.909Z,21.00
2022-08-10T04:38:09.789Z,21.06
2022-08-10T04:43:13.775Z,20.91
2022-08-10T04:48:41.675Z,21.17
2022-08-10T04:54:03.296Z,21.49
2022-08-10T04:59:07.360Z,21.69
2022-08-10T05:04:37.240Z,21.85
2022-08-10T05:10:01.193Z,21.92
2022-08-10T05:14:59.742Z,22.01
2022-08-10T05:20:06.962Z,22.11
2022-08-10T05:25:13.845Z,22.36
2022-08-10T05:30:21.748Z,22.54
2022-08-10T05:35:25.708Z,22.63
2022-08-10T05:40:30.631Z,22.71
2022-08-10T05:45:34.206Z,22.92
2022-08-10T05:50:57.791Z,23.16
2022-08-10T05:56:03.879Z,23.28
2022-08-10T06:01:09.192Z,23.36
2022-08-10T06:06:13.777Z,23.73
2022-08-10T06:12:26.487Z,23.90
2022-08-10T06:16:44.267Z,23.63
2022-08-10T06:22:00.674Z,24.02
2022-08-10T06:27:06.476Z,24.39
2022-08-10T06:32:11.624Z,24.51
2022-08-10T06:37:18.792Z,24.61
2022-08-10T06:42:29.425Z,24.98
2022-08-10T06:47:38.571Z,25.19
2022-08-10T06:52:43.855Z,25.36
2022-08-10T06:57:59.798Z,25.79
2022-08-10T07:03:08.104Z,25.70
2022-08-10T07:08:12.100Z,25.87
2022-08-10T07:14:17.034Z,26.39
2022-08-10T07:18:44.306Z,26.50
2022-08-10T07:23:58.433Z,26.67
2022-08-10T07:29:06.025Z,26.68
2022-08-10T07:34:10.267Z,27.10
2022-08-10T07:39:13.919Z,27.43
2022-08-10T07:44:19.669Z,27.44
2022-08-10T07:49:26.105Z,27.75
2022-08-10T07:54:30.637Z,28.03
2022-08-10T07:59:38.793Z,28.24
2022-08-10T08:04:43.296Z,28.74
2022-08-10T08:09:57.835Z,28.62
2022-08-10T08:16:14.371Z,28.97
2022-08-10T08:20:31.414Z,29.12
2022-08-10T08:25:35.082Z,29.37
2022-08-10T08:30:43.515Z,29.56
2022-08-10T08:35:50.871Z,30.00
2022-08-10T08:41:00.479Z,29.84
2022-08-10T08:46:20.237Z,30.48
2022-08-10T08:52:17.149Z,30.70
2022-08-10T08:57:01.279Z,31.11
2022-08-10T09:02:14.938Z,31.46
2022-08-10T09:07:59.280Z,31.73
2022-08-10T09:13:02.742Z,32.00
2022-08-10T09:18:12.524Z,31.98
2022-08-10T09:24:02.073Z,32.26
2022-08-10T09:28:52.469Z,32.51
2022-08-10T09:36:20.389Z,32.89
2022-08-10T09:41:03.067Z,33.17
2022-08-10T09:45:54.580Z,33.37
2022-08-10T09:56:33.895Z,33.58
2022-08-10T10:02:00.507Z,33.33
2022-08-10T10:07:08.132Z,33.92
2022-08-10T10:12:17.313Z,34.06
2022-08-10T10:17:27.527Z,34.64
2022-08-10T10:22:43.659Z,34.14
2022-08-10T10:27:52.560Z,34.47
2022-08-10T10:33:00.312Z,34.34
2022-08-10T10:53:38.019Z,34.04
2022-08-10T10:58:47.659Z,35.35
2022-08-10T11:04:02.971Z,36.05
2022-08-10T11:10:06.089Z,36.37
2022-08-10T11:14:49.778Z,36.36
2022-08-10T11:20:01.820Z,36.04
2022-08-10T11:25:12.904Z,36.77
2022-08-10T11:30:21.161Z,36.36
2022-08-10T11:36:03.244Z,36.78
2022-08-10T11:42:08.929Z,37.14
2022-08-10T11:46:41.410Z,37.05
2022-08-10T11:51:47.072Z,37.77
2022-08-10T11:56:58.484Z,37.97
2022-08-10T12:02:06.721Z,37.89
2022-08-10T12:10:07.419Z,37.90
2022-08-10T12:12:38.331Z,38.44
2022-08-10T12:17:47.011Z,37.56
2022-08-10T12:22:56.642Z,37.54
2022-08-10T12:28:08.780Z,38.48
2022-08-10T12:33:21.671Z,37.95
2022-08-10T12:38:32.464Z,37.54
2022-08-10T12:44:04.941Z,38.56
2022-08-10T12:49:10.659Z,37.82
2022-08-10T12:54:17.614Z,38.64
2022-08-10T12:59:43.260Z,38.50
2022-08-10T13:04:50.586Z,38.49
2022-08-10T13:09:56.549Z,38.70
2022-08-10T13:15:45.393Z,38.91
2022-08-10T13:20:35.765Z,38.73
2022-08-10T13:25:41.924Z,38.43
2022-08-10T13:30:50.600Z,37.78
2022-08-10T13:35:58.114Z,38.95
2022-08-10T13:41:04.668Z,38.60
2022-08-10T13:46:22.651Z,38.75
2022-08-10T13:51:56.705Z,38.56
2022-08-10T13:56:52.303Z,38.87
2022-08-10T14:02:00.532Z,38.81
2022-08-10T14:07:04.623Z,38.16
2022-08-10T14:12:10.116Z,38.93
2022-08-10T14:17:15.300Z,38.80
2022-08-10T14:22:34.154Z,38.44
2022-08-10T14:28:03.711Z,38.78
2022-08-10T14:33:07.445Z,38.74
2022-08-10T14:38:13.614Z,38.92
2022-08-10T14:43:28.269Z,39.03
2022-08-10T14:48:36.150Z,38.82
2022-08-10T14:53:42.536Z,38.92
2022-08-10T14:58:59.346Z,39.07
2022-08-10T15:04:13.349Z,38.82
2022-08-10T15:09:20.212Z,38.58
2022-08-10T15:14:43.257Z,38.63
2022-08-10T15:20:03.329Z,38.48
2022-08-10T15:25:25.554Z,38.61
2022-08-10T15:30:31.839Z,38.36
2022-08-10T15:35:55.279Z,38.19
2022-08-10T15:40:59.498Z,37.75
2022-08-10T15:46:16.050Z,38.31
2022-08-10T15:51:28.163Z,38.15
2022-08-10T15:56:35.426Z,37.35
2022-08-10T16:02:13.898Z,37.20
2022-08-10T16:07:12.829Z,37.26
2022-08-10T16:12:29.396Z,37.36
2022-08-10T16:17:54.603Z,37.14
2022-08-10T16:23:02.477Z,37.36
2022-08-10T16:28:08.658Z,36.94
2022-08-10T16:33:14.460Z,36.31
2022-08-10T16:38:20.710Z,36.27
2022-08-10T16:43:25.860Z,35.98
2022-08-10T16:48:50.029Z,35.75
2022-08-10T16:53:56.306Z,35.81
2022-08-10T16:58:59.971Z,35.80
2022-08-10T17:04:10.235Z,35.33
2022-08-10T17:09:19.807Z,35.28
2022-08-10T17:14:25.041Z,35.06
2022-08-10T17:19:31.359Z,34.95
2022-08-10T17:24:39.042Z,34.76
2022-08-10T17:29:58.949Z,34.42
2022-08-10T17:35:10.651Z,34.33
2022-08-10T17:40:17.345Z,34.16
2022-08-10T17:45:47.595Z,33.81
2022-08-10T17:50:50.470Z,33.46
2022-08-10T17:55:57.936Z,33.52
2022-08-10T18:01:40.838Z,33.44
2022-08-10T18:06:26.981Z,33.10
2022-08-10T18:11:33.887Z,32.92
2022-08-10T18:16:41.828Z,32.83
2022-08-10T18:21:48.520Z,32.72
2022-08-10T18:26:55.230Z,32.47
2022-08-10T18:32:01.080Z,32.19
2022-08-10T18:37:07.836Z,32.15
2022-08-10T18:42:14.616Z,31.77
2022-08-10T18:47:21.387Z,31.65
2022-08-10T18:52:28.095Z,31.35
2022-08-10T18:57:43.260Z,31.23
2022-08-10T19:03:12.246Z,31.01
2022-08-10T19:08:33.686Z,30.72
2022-08-10T19:14:09.677Z,30.32
2022-08-10T19:19:34.698Z,30.07
2022-08-10T19:24:46.897Z,29.77
2022-08-10T19:30:09.480Z,29.50
2022-08-10T19:35:22.759Z,29.13
2022-08-10T19:40:46.583Z,29.02
2022-08-10T19:46:02.501Z,28.78
2022-08-10T19:51:10.541Z,28.69
2022-08-10T19:56:33.685Z,28.56
2022-08-10T20:01:55.038Z,28.37
2022-08-10T20:07:06.685Z,28.16
2022-08-10T20:12:15.228Z,28.07
2022-08-10T20:17:27.155Z,27.95
2022-08-10T20:22:36.896Z,27.82
2022-08-10T20:28:00.470Z,27.65
2022-08-10T20:33:11.080Z,27.57
2022-08-10T20:38:21.060Z,27.40
2022-08-10T20:43:31.140Z,27.24
2022-08-10T20:48:39.355Z,27.15
2022-08-10T20:53:46.080Z,27.06
2022-08-10T20:59:09.356Z,26.96
2022-08-10T21:04:19.846Z,26.88
2022-08-10T21:09:34.759Z,26.77
2022-08-10T21:14:44.955Z,26.74
2022-08-10T21:20:09.263Z,26.56
2022-08-10T21:25:18.720Z,26.53
2022-08-10T21:30:29.052Z,26.43
2022-08-10T21:35:38.343Z,26.32
2022-08-10T21:41:17.814Z,26.26
2022-08-10T21:46:33.167Z,26.05
2022-08-10T21:52:04.184Z,25.94
2022-08-10T21:57:43.008Z,25.90
2022-08-10T22:03:06.018Z,25.74
2022-08-10T22:08:29.345Z,25.67
2022-08-10T22:13:53.638Z,25.52
2022-08-10T22:19:17.027Z,25.44
2022-08-10T22:24:47.218Z,25.29
2022-08-10T22:30:12.579Z,25.29
2022-08-10T22:35:57.007Z,25.14
2022-08-10T22:41:26.477Z,25.05
2022-08-10T22:46:49.571Z,25.07
2022-08-10T22:51:55.469Z,25.01
2022-08-10T22:57:18.048Z,24.97
2022-08-10T23:02:29.633Z,24.89
2022-08-10T23:07:34.565Z,24.79
2022-08-10T23:12:42.776Z,24.78
2022-08-10T23:18:08.294Z,24.68
2022-08-10T23:23:23.559Z,24.58
2022-08-10T23:28:39.457Z,24.48
2022-08-10T23:33:59.645Z,24.34
2022-08-10T23:39:25.919Z,24.27
2022-08-10T23:44:36.632Z,24.18
2022-08-10T23:49:43.107Z,24.07
2022-08-10T23:54:49.463Z,23.99
2022-08-10T23:59:58.807Z,23.82
